createdAt,value
2018-07-04T00:02:24.163Z,0.57
2018-07-04T00:05:03.916Z,0.80
2018-07-04T00:07:43.686Z,0.80
2018-07-04T00:10:23.455Z,0.60
2018-07-04T00:13:03.129Z,0.55
2018-07-04T00:15:42.738Z,0.55
2018-07-04T00:18:22.313Z,0.70
2018-07-04T00:21:01.953Z,0.70
2018-07-04T00:23:41.735Z,0.70
2018-07-04T00:26:21.370Z,0.60
2018-07-04T00:29:01.087Z,0.53
2018-07-04T00:31:40.957Z,0.30
2018-07-04T00:34:20.598Z,0.30
2018-07-04T00:37:00.141Z,0.55
2018-07-04T00:39:39.840Z,0.53
2018-07-04T00:42:19.373Z,0.30
2018-07-04T00:44:59.195Z,0.50
2018-07-04T00:47:38.915Z,0.40
2018-07-04T00:50:18.670Z,0.70
2018-07-04T00:52:58.504Z,0.40
2018-07-04T00:55:38.127Z,0.50
2018-07-04T00:58:17.690Z,0.30
2018-07-04T01:00:57.210Z,0.37
2018-07-04T01:03:36.693Z,0.30
2018-07-04T01:06:16.184Z,0.40
2018-07-04T01:08:49.794Z,0.60
2018-07-04T01:11:29.441Z,0.55
2018-07-04T01:14:09.000Z,0.62
2018-07-04T01:16:48.680Z,0.40
2018-07-04T01:19:28.962Z,0.62
2018-07-04T01:22:08.633Z,0.68
2018-07-04T01:24:48.410Z,0.50
2018-07-04T01:27:28.083Z,0.70
2018-07-04T01:30:07.752Z,0.40
2018-07-04T01:32:47.408Z,0.40
2018-07-04T01:35:27.134Z,0.40
2018-07-04T01:38:06.791Z,0.80
2018-07-04T01:40:46.372Z,0.70
2018-07-04T01:43:25.979Z,0.72
2018-07-04T01:46:05.520Z,0.37
2018-07-04T01:48:45.221Z,0.55
2018-07-04T01:51:24.813Z,0.50
2018-07-04T01:54:04.545Z,0.50
2018-07-04T01:56:44.157Z,0.68
2018-07-04T01:59:23.745Z,0.70
2018-07-04T02:02:03.701Z,0.40
2018-07-04T02:04:43.570Z,0.50
2018-07-04T02:07:23.395Z,0.70
2018-07-04T02:10:03.069Z,0.50
2018-07-04T02:12:43.039Z,0.53
2018-07-04T02:15:22.793Z,0.70
2018-07-04T02:18:02.451Z,0.55
2018-07-04T02:20:41.998Z,0.72
2018-07-04T02:23:21.732Z,0.68
2018-07-04T02:26:01.608Z,0.70
2018-07-04T02:28:41.402Z,1.10
2018-07-04T02:31:21.016Z,0.70
2018-07-04T02:34:00.468Z,0.62
2018-07-04T02:36:40.185Z,0.90
2018-07-04T02:39:19.979Z,0.53
2018-07-04T02:41:59.589Z,0.62
2018-07-04T02:44:39.371Z,0.60
2018-07-04T02:47:24.535Z,0.45
2018-07-04T02:50:04.306Z,0.98
2018-07-04T02:52:43.872Z,0.50
2018-07-04T02:55:23.746Z,0.40
2018-07-04T02:58:03.264Z,0.72
2018-07-04T03:00:42.940Z,0.95
2018-07-04T03:03:22.518Z,1.75
2018-07-04T03:06:02.317Z,1.60
2018-07-04T03:08:42.183Z,2.02
2018-07-04T03:11:21.784Z,1.90
2018-07-04T03:14:01.368Z,1.70
2018-07-04T03:16:40.836Z,1.27
2018-07-04T03:19:20.535Z,1.37
2018-07-04T03:22:00.173Z,1.70
2018-07-04T03:24:39.742Z,1.00
2018-07-04T03:27:19.421Z,1.77
2018-07-04T03:29:59.029Z,1.95
2018-07-04T03:32:38.798Z,2.67
2018-07-04T03:35:18.567Z,1.57
2018-07-04T03:37:58.237Z,2.12
2018-07-04T03:40:37.832Z,1.52
2018-07-04T03:43:17.433Z,1.22
2018-07-04T03:45:57.108Z,1.10
2018-07-04T03:48:36.903Z,0.80
2018-07-04T03:51:16.570Z,1.00
2018-07-04T03:53:56.195Z,0.90
2018-07-04T03:56:35.963Z,1.10
2018-07-04T03:59:15.647Z,0.93
2018-07-04T04:01:55.874Z,0.82
2018-07-04T04:04:35.736Z,1.00
2018-07-04T04:07:15.489Z,1.10
2018-07-04T04:09:55.023Z,1.10
2018-07-04T04:12:34.802Z,1.32
2018-07-04T04:15:14.529Z,2.00
2018-07-04T04:17:54.332Z,1.55
2018-07-04T04:20:34.078Z,1.95
2018-07-04T04:23:13.841Z,1.57
2018-07-04T04:25:54.366Z,1.50
2018-07-04T04:28:34.250Z,1.98
2018-07-04T04:31:14.025Z,0.90
2018-07-04T04:33:54.405Z,1.25
2018-07-04T04:36:34.057Z,1.25
2018-07-04T04:39:13.815Z,2.80
2018-07-04T04:41:53.944Z,2.20
2018-07-04T04:44:33.740Z,2.62
2018-07-04T04:47:13.404Z,2.30
2018-07-04T04:49:53.225Z,1.75
2018-07-04T04:52:32.720Z,1.95
2018-07-04T04:55:12.336Z,1.90
2018-07-04T04:57:52.217Z,1.42
2018-07-04T05:00:32.009Z,1.60
2018-07-04T05:03:11.773Z,0.90
2018-07-04T05:05:52.319Z,1.35
2018-07-04T05:08:32.380Z,1.82
2018-07-04T05:11:12.016Z,2.95
2018-07-04T05:13:51.948Z,2.40
2018-07-04T05:16:31.824Z,1.37
2018-07-04T05:19:11.694Z,2.00
2018-07-04T05:21:51.365Z,1.50
2018-07-04T05:24:31.201Z,1.57
2018-07-04T05:27:10.955Z,1.45
2018-07-04T05:29:50.712Z,1.15
2018-07-04T05:32:30.545Z,1.42
2018-07-04T05:35:10.413Z,1.42
2018-07-04T05:37:50.245Z,1.42
2018-07-04T05:40:30.600Z,0.98
2018-07-04T05:43:10.373Z,1.02
2018-07-04T05:45:50.045Z,1.20
2018-07-04T05:48:29.721Z,1.22
2018-07-04T05:51:09.498Z,1.40
2018-07-04T05:53:49.163Z,1.45
2018-07-04T05:56:28.842Z,1.22
2018-07-04T05:59:08.515Z,1.22
2018-07-04T06:01:48.351Z,1.25
2018-07-04T06:04:28.615Z,1.15
2018-07-04T06:07:08.436Z,0.98
2018-07-04T06:09:48.067Z,1.80
2018-07-04T06:12:27.645Z,2.00
2018-07-04T06:15:08.020Z,1.00
2018-07-04T06:17:47.733Z,0.95
2018-07-04T06:20:27.318Z,0.80
2018-07-04T06:23:06.878Z,1.87
2018-07-04T06:25:46.668Z,1.22
2018-07-04T06:28:26.334Z,0.90
2018-07-04T06:31:06.132Z,0.90
2018-07-04T06:33:45.817Z,0.82
2018-07-04T06:36:25.507Z,1.17
2018-07-04T06:38:52.848Z,1.30
2018-07-04T06:41:20.473Z,0.93
2018-07-04T06:43:47.854Z,1.15
2018-07-04T06:46:15.188Z,0.78
2018-07-04T06:48:42.525Z,0.53
2018-07-04T06:51:09.908Z,0.93
2018-07-04T06:53:37.277Z,1.07
2018-07-04T06:56:04.626Z,0.85
2018-07-04T06:58:31.971Z,0.70
2018-07-04T07:00:59.320Z,0.90
2018-07-04T07:03:39.035Z,0.95
2018-07-04T07:06:18.797Z,1.00
2018-07-04T07:08:58.426Z,0.70
2018-07-04T07:11:38.033Z,1.00
2018-07-04T07:14:17.850Z,0.80
2018-07-04T07:16:57.555Z,1.85
2018-07-04T07:19:37.260Z,1.17
2018-07-04T07:22:16.928Z,1.20
2018-07-04T07:24:56.585Z,0.90
2018-07-04T07:27:36.393Z,0.72
2018-07-04T07:30:16.337Z,0.57
2018-07-04T07:32:55.944Z,0.70
2018-07-04T07:35:35.591Z,1.00
2018-07-04T07:38:15.300Z,0.82
2018-07-04T07:40:54.918Z,0.70
2018-07-04T07:43:34.681Z,0.65
2018-07-04T07:46:14.365Z,0.80
2018-07-04T07:48:53.961Z,1.02
2018-07-04T07:51:33.684Z,0.90
2018-07-04T07:54:13.572Z,0.80
2018-07-04T07:56:53.328Z,0.70
2018-07-04T07:59:33.096Z,0.53
2018-07-04T08:02:12.717Z,0.62
2018-07-04T08:04:52.506Z,0.60
2018-07-04T08:07:32.136Z,0.70
2018-07-04T08:10:11.996Z,0.68
2018-07-04T08:12:51.706Z,0.85
2018-07-04T08:15:31.320Z,0.60
2018-07-04T08:18:10.930Z,1.40
2018-07-04T08:20:52.302Z,1.17
2018-07-04T08:23:31.891Z,1.00
2018-07-04T08:26:11.544Z,0.62
2018-07-04T08:28:52.063Z,0.70
2018-07-04T08:31:31.872Z,1.25
2018-07-04T08:34:11.649Z,1.10
2018-07-04T08:36:51.388Z,0.82
2018-07-04T08:39:31.085Z,0.70
2018-07-04T08:42:10.794Z,2.00
2018-07-04T08:44:50.527Z,0.75
2018-07-04T08:47:30.259Z,1.05
2018-07-04T08:50:09.944Z,0.65
2018-07-04T08:52:49.765Z,0.82
2018-07-04T08:55:29.541Z,0.93
2018-07-04T08:58:09.170Z,0.95
2018-07-04T09:00:48.810Z,0.82
2018-07-04T09:03:28.493Z,0.90
2018-07-04T09:06:08.355Z,0.75
2018-07-04T09:08:48.139Z,0.82
2018-07-04T09:11:27.754Z,1.07
2018-07-04T09:14:07.453Z,0.50
2018-07-04T09:16:47.192Z,0.70
2018-07-04T09:19:26.906Z,0.95
2018-07-04T09:22:06.532Z,0.60
2018-07-04T09:24:46.134Z,0.90
2018-07-04T09:27:25.780Z,0.50
2018-07-04T09:30:05.465Z,0.65
2018-07-04T09:32:45.292Z,0.70
2018-07-04T09:35:25.066Z,0.50
2018-07-04T09:38:04.786Z,1.10
2018-07-04T09:40:44.735Z,0.78
2018-07-04T09:43:24.410Z,1.40
2018-07-04T09:46:04.061Z,1.00
2018-07-04T09:48:44.292Z,1.05
2018-07-04T09:51:24.163Z,1.32
2018-07-04T09:54:03.933Z,0.80
2018-07-04T09:56:43.699Z,0.90
2018-07-04T09:59:23.535Z,0.60
2018-07-04T10:02:03.284Z,0.85
2018-07-04T10:04:42.883Z,0.60
2018-07-04T10:07:22.748Z,0.53
2018-07-04T10:10:02.435Z,0.95
2018-07-04T10:12:42.299Z,0.75
2018-07-04T10:15:22.192Z,0.80
2018-07-04T10:18:03.495Z,0.78
2018-07-04T10:20:43.225Z,0.78
2018-07-04T10:23:23.467Z,1.10
2018-07-04T10:26:03.206Z,0.78
2018-07-04T10:28:42.935Z,1.10
2018-07-04T10:31:22.849Z,0.68
2018-07-04T10:34:02.659Z,0.68
2018-07-04T10:36:42.280Z,0.75
2018-07-04T10:39:21.954Z,0.60
2018-07-04T10:42:01.630Z,1.00
2018-07-04T10:44:41.201Z,0.80
2018-07-04T10:47:20.913Z,0.53
2018-07-04T10:50:00.626Z,0.70
2018-07-04T10:52:40.297Z,0.50
2018-07-04T10:55:20.029Z,0.80
2018-07-04T10:57:59.852Z,0.65
2018-07-04T11:00:39.622Z,1.00
2018-07-04T11:03:19.232Z,0.75
2018-07-04T11:05:59.002Z,0.98
2018-07-04T11:08:38.723Z,0.62
2018-07-04T11:11:18.639Z,0.90
2018-07-04T11:13:58.494Z,0.72
2018-07-04T11:16:32.233Z,0.82
2018-07-04T11:19:12.051Z,0.60
2018-07-04T11:21:51.877Z,0.60
2018-07-04T11:24:31.781Z,0.80
2018-07-04T11:27:11.492Z,0.40
2018-07-04T11:29:51.142Z,0.33
2018-07-04T11:32:30.907Z,0.47
2018-07-04T11:35:10.546Z,0.57
2018-07-04T11:37:50.179Z,0.80
2018-07-04T11:40:29.710Z,0.78
2018-07-04T11:43:09.277Z,0.40
2018-07-04T11:45:49.039Z,0.50
2018-07-04T11:48:16.388Z,0.42
2018-07-04T11:50:43.748Z,0.93
2018-07-04T11:53:11.147Z,1.10
2018-07-04T11:55:38.529Z,0.88
2018-07-04T11:58:05.865Z,0.60
2018-07-04T12:00:33.253Z,0.80
2018-07-04T12:03:00.607Z,0.40
2018-07-04T12:05:40.277Z,0.35
2018-07-04T12:08:07.614Z,0.40
2018-07-04T12:10:35.008Z,0.57
2018-07-04T12:13:02.342Z,0.80
2018-07-04T12:15:29.731Z,0.65
2018-07-04T12:17:57.076Z,0.33
2018-07-04T12:20:24.437Z,0.42
2018-07-04T12:22:51.780Z,0.70
2018-07-04T12:25:19.169Z,0.80
2018-07-04T12:27:46.508Z,0.57
2018-07-04T12:30:13.859Z,0.70
2018-07-04T12:32:41.187Z,0.50
2018-07-04T12:35:08.553Z,0.50
2018-07-04T12:37:35.907Z,0.90
2018-07-04T12:40:03.570Z,0.47
2018-07-04T12:42:30.935Z,0.68
2018-07-04T12:44:58.260Z,0.65
2018-07-04T12:47:25.685Z,0.57
2018-07-04T12:49:52.963Z,0.60
2018-07-04T12:52:20.353Z,0.42
2018-07-04T12:54:57.814Z,0.80
2018-07-04T12:57:37.677Z,0.30
2018-07-04T13:00:17.594Z,0.50
2018-07-04T13:02:57.162Z,0.40
2018-07-04T13:05:36.793Z,0.50
2018-07-04T13:08:16.513Z,0.60
2018-07-04T13:10:56.291Z,0.90
2018-07-04T13:13:35.936Z,0.70
2018-07-04T13:16:16.595Z,0.50
2018-07-04T13:18:56.564Z,0.70
2018-07-04T13:21:36.453Z,0.60
2018-07-04T13:24:16.238Z,0.98
2018-07-04T13:26:55.935Z,0.70
2018-07-04T13:29:35.928Z,0.62
2018-07-04T13:32:15.916Z,0.60
2018-07-04T13:34:50.402Z,0.50
2018-07-04T13:37:30.048Z,0.70
2018-07-04T13:40:10.064Z,0.75
2018-07-04T13:42:49.994Z,1.98
2018-07-04T13:45:29.825Z,1.30
2018-07-04T13:48:09.652Z,0.40
2018-07-04T13:50:49.580Z,0.50
2018-07-04T13:53:29.408Z,0.50
2018-07-04T13:56:09.184Z,0.80
2018-07-04T13:58:49.005Z,0.53
2018-07-04T14:01:28.871Z,0.40
2018-07-04T14:04:08.689Z,0.50
2018-07-04T14:06:48.372Z,0.90
2018-07-04T14:09:29.518Z,0.72
2018-07-04T14:12:09.393Z,0.40
2018-07-04T14:14:49.249Z,0.70
2018-07-04T14:17:29.027Z,0.85
2018-07-04T14:20:08.643Z,0.62
2018-07-04T14:22:48.890Z,0.70
2018-07-04T14:25:28.730Z,0.62
2018-07-04T14:28:08.571Z,0.90
2018-07-04T14:30:48.393Z,0.70
2018-07-04T14:33:28.208Z,0.60
2018-07-04T14:36:07.946Z,0.90
2018-07-04T14:38:47.609Z,0.60
2018-07-04T14:41:27.595Z,0.60
2018-07-04T14:44:07.352Z,0.50
2018-07-04T14:46:47.557Z,0.62
2018-07-04T14:49:27.292Z,0.65
2018-07-04T14:52:07.297Z,1.42
2018-07-04T14:54:46.937Z,0.72
2018-07-04T14:57:26.527Z,1.02
2018-07-04T15:00:06.416Z,0.60
2018-07-04T15:02:46.122Z,0.60
2018-07-04T15:05:26.030Z,0.90
2018-07-04T15:07:59.648Z,1.90
2018-07-04T15:10:39.536Z,1.10
2018-07-04T15:13:19.194Z,0.75
2018-07-04T15:15:58.922Z,0.75
2018-07-04T15:18:38.631Z,0.60
2018-07-04T15:21:18.544Z,0.72
2018-07-04T15:23:58.136Z,0.65
2018-07-04T15:26:37.890Z,0.95
2018-07-04T15:29:17.661Z,1.00
2018-07-04T15:31:57.469Z,0.75
2018-07-04T15:34:37.248Z,0.82
2018-07-04T15:37:17.053Z,0.88
2018-07-04T15:39:56.726Z,0.50
2018-07-04T15:42:36.485Z,0.70
2018-07-04T15:45:16.198Z,0.93
2018-07-04T15:47:55.824Z,0.72
2018-07-04T15:50:35.608Z,0.88
2018-07-04T15:53:15.608Z,1.05
2018-07-04T15:55:55.530Z,0.50
2018-07-04T15:58:35.219Z,0.60
2018-07-04T16:01:14.903Z,0.88
2018-07-04T16:03:54.551Z,0.60
2018-07-04T16:06:34.291Z,0.60
2018-07-04T16:09:14.238Z,2.67
2018-07-04T16:11:53.857Z,0.98
2018-07-04T16:14:33.584Z,0.75
2018-07-04T16:17:13.373Z,1.07
2018-07-04T16:19:53.335Z,0.90
2018-07-04T16:22:33.071Z,0.53
2018-07-04T16:25:12.936Z,0.75
2018-07-04T16:27:52.840Z,0.68
2018-07-04T16:30:32.590Z,0.88
2018-07-04T16:33:12.476Z,1.37
2018-07-04T16:35:52.210Z,0.60
2018-07-04T16:38:31.944Z,0.60
2018-07-04T16:41:11.500Z,1.22
2018-07-04T16:43:51.241Z,0.50
2018-07-04T16:46:31.089Z,0.82
2018-07-04T16:49:11.397Z,0.82
2018-07-04T16:51:51.101Z,1.22
2018-07-04T16:54:30.854Z,1.07
2018-07-04T16:57:10.686Z,0.93
2018-07-04T16:59:50.681Z,1.10
2018-07-04T17:02:30.492Z,2.85
2018-07-04T17:05:10.320Z,3.27
2018-07-04T17:07:49.999Z,0.82
2018-07-04T17:10:30.623Z,0.90
2018-07-04T17:13:10.419Z,1.12
2018-07-04T17:15:50.218Z,0.98
2018-07-04T17:18:29.866Z,0.88
2018-07-04T17:21:09.503Z,1.12
2018-07-04T17:23:49.189Z,0.85
2018-07-04T17:26:29.255Z,0.90
2018-07-04T17:29:09.065Z,0.47
2018-07-04T17:31:48.737Z,0.62
2018-07-04T17:34:28.828Z,0.42
2018-07-04T17:37:08.643Z,0.70
2018-07-04T17:39:48.558Z,0.47
2018-07-04T17:42:28.342Z,0.82
2018-07-04T17:45:08.048Z,1.12
2018-07-04T17:47:47.605Z,3.40
2018-07-04T17:50:27.434Z,1.60
2018-07-04T17:53:07.204Z,0.70
2018-07-04T17:55:47.028Z,0.88
2018-07-04T17:58:26.660Z,1.17
2018-07-04T18:01:06.386Z,0.60
2018-07-04T18:03:45.987Z,0.70
2018-07-04T18:06:25.735Z,0.75
2018-07-04T18:09:05.470Z,0.70
2018-07-04T18:11:45.170Z,1.10
2018-07-04T18:14:25.003Z,0.80
2018-07-04T18:17:04.611Z,0.50
2018-07-04T18:19:44.290Z,0.78
2018-07-04T18:22:23.895Z,1.07
2018-07-04T18:25:03.691Z,0.60
2018-07-04T18:27:43.412Z,0.75
2018-07-04T18:30:23.066Z,0.70
2018-07-04T18:33:02.771Z,0.78
2018-07-04T18:35:42.474Z,0.80
2018-07-04T18:38:22.265Z,1.22
2018-07-04T18:41:02.007Z,1.10
2018-07-04T18:43:41.625Z,1.02
2018-07-04T18:46:21.277Z,1.00
2018-07-04T18:49:00.815Z,1.10
2018-07-04T18:51:40.580Z,1.10
2018-07-04T18:54:20.248Z,0.98
2018-07-04T18:57:00.065Z,0.80
2018-07-04T18:59:39.913Z,0.82
2018-07-04T19:02:19.642Z,1.02
2018-07-04T19:04:59.416Z,1.17
2018-07-04T19:07:39.237Z,0.90
2018-07-04T19:10:18.975Z,2.35
2018-07-04T19:12:58.726Z,1.80
2018-07-04T19:15:38.381Z,1.20
2018-07-04T19:18:18.226Z,1.30
2018-07-04T19:20:57.896Z,11.38
2018-07-04T19:23:37.595Z,6.95
2018-07-04T19:26:17.365Z,4.00
2018-07-04T19:28:57.282Z,3.40
2018-07-04T19:31:37.077Z,2.12
2018-07-04T19:34:16.929Z,2.30
2018-07-04T19:36:56.667Z,2.65
2018-07-04T19:39:36.388Z,5.60
2018-07-04T19:42:16.325Z,11.33
2018-07-04T19:44:55.869Z,5.37
2018-07-04T19:47:35.703Z,2.47
2018-07-04T19:50:15.517Z,2.87
2018-07-04T19:52:55.234Z,3.30
2018-07-04T19:55:35.041Z,1.22
2018-07-04T19:58:14.671Z,1.10
2018-07-04T20:00:54.435Z,1.57
2018-07-04T20:03:34.134Z,1.27
2018-07-04T20:06:13.933Z,1.30
2018-07-04T20:08:53.705Z,1.55
2018-07-04T20:11:33.495Z,1.30
2018-07-04T20:14:13.366Z,1.62
2018-07-04T20:16:53.074Z,1.47
2018-07-04T20:19:32.956Z,1.10
2018-07-04T20:22:12.557Z,1.15
2018-07-04T20:24:52.295Z,1.15
2018-07-04T20:27:31.977Z,1.10
2018-07-04T20:30:11.840Z,1.27
2018-07-04T20:32:51.504Z,3.08
2018-07-04T20:35:31.118Z,5.92
2018-07-04T20:38:10.768Z,3.98
2018-07-04T20:40:50.376Z,2.10
2018-07-04T20:43:30.195Z,2.10
2018-07-04T20:46:09.790Z,2.35
2018-07-04T20:48:49.515Z,2.15
2018-07-04T20:51:29.154Z,1.95
2018-07-04T20:54:08.788Z,1.72
2018-07-04T20:56:48.618Z,1.60
2018-07-04T20:59:28.165Z,1.75
2018-07-04T21:02:07.958Z,2.20
2018-07-04T21:04:47.557Z,3.27
2018-07-04T21:07:27.221Z,3.27
2018-07-04T21:10:06.862Z,1.80
2018-07-04T21:12:46.468Z,1.85
2018-07-04T21:15:26.083Z,1.75
2018-07-04T21:18:05.727Z,1.47
2018-07-04T21:20:45.433Z,1.40
2018-07-04T21:23:25.070Z,1.70
2018-07-04T21:26:04.607Z,1.82
2018-07-04T21:28:44.356Z,1.98
2018-07-04T21:31:24.069Z,2.17
2018-07-04T21:34:03.667Z,1.75
2018-07-04T21:36:43.332Z,1.70
2018-07-04T21:39:23.133Z,1.50
2018-07-04T21:42:02.870Z,1.90
2018-07-04T21:44:42.608Z,2.05
2018-07-04T21:47:22.236Z,1.42
2018-07-04T21:50:01.856Z,1.42
2018-07-04T21:52:41.584Z,1.70
2018-07-04T21:55:21.279Z,1.90
2018-07-04T21:58:01.181Z,1.87
2018-07-04T22:00:40.873Z,2.37
2018-07-04T22:03:20.463Z,1.85
2018-07-04T22:06:00.266Z,1.80
2018-07-04T22:08:40.222Z,2.37
2018-07-04T22:11:19.968Z,2.05
2018-07-04T22:13:59.644Z,2.37
2018-07-04T22:16:39.468Z,1.70
2018-07-04T22:19:19.173Z,2.37
2018-07-04T22:21:58.830Z,1.67
2018-07-04T22:24:38.497Z,2.30
2018-07-04T22:27:18.207Z,2.27
2018-07-04T22:29:57.889Z,2.25
2018-07-04T22:32:37.502Z,2.15
2018-07-04T22:35:17.144Z,2.05
2018-07-04T22:37:56.819Z,2.08
2018-07-04T22:40:36.507Z,2.33
2018-07-04T22:43:16.312Z,2.22
2018-07-04T22:45:55.981Z,1.80
2018-07-04T22:48:35.536Z,1.87
2018-07-04T22:51:15.173Z,1.80
2018-07-04T22:53:54.865Z,2.33
2018-07-04T22:56:34.579Z,1.80
2018-07-04T22:59:14.188Z,4.20
2018-07-04T23:01:54.160Z,4.70
2018-07-04T23:04:33.719Z,2.22
2018-07-04T23:07:13.345Z,2.02
2018-07-04T23:09:53.199Z,2.27
2018-07-04T23:12:32.898Z,2.27
2018-07-04T23:15:12.629Z,1.87
2018-07-04T23:17:52.989Z,2.08
2018-07-04T23:20:33.295Z,2.25
2018-07-04T23:23:13.059Z,1.90
2018-07-04T23:25:52.740Z,2.50
2018-07-04T23:28:32.304Z,2.47
2018-07-04T23:31:11.880Z,2.50
2018-07-04T23:33:51.579Z,2.02
2018-07-04T23:36:31.321Z,2.10
2018-07-04T23:39:11.201Z,2.20
2018-07-04T23:41:50.931Z,2.12
2018-07-04T23:44:30.722Z,2.00
2018-07-04T23:47:10.404Z,2.25
2018-07-04T23:49:51.005Z,1.85
2018-07-04T23:52:30.631Z,2.22
2018-07-04T23:55:10.261Z,2.10
2018-07-04T23:57:50.004Z,1.75
